Herzlich willkommen!

Am freundlichen Bodensee-Flugplatz zwischen Schwarzwald, Rhein und Alpen.

Aktuelles

20.05.2022
Seenachtfest Konstananz
Flugplatz vom 12.08.-14.08.2022 aufgrund einer Veranstaltung GESCHLOSSEN Airfield closed from 08/12/2022-08/14/2022 due to an event
— Flugleitung EDTZ

Persönliches

Live am Platz

Die Bilder unserer Webcams werden alle 5 Minuten aktualisiert.

Sonnenaufgang:

04:20 UTC / 06:20 Lokal

Sonnenuntergang:

18:34 UTC / 20:34 Lokal

METAR (17.08.2022 09:20 UTC):

EDNY 170920Z 23003KT 170V300 CAVOK 25/15 Q1013
VFR

TAF (17.08.2022 05:00 UTC):

TAF EDNY 170500Z 1706/1806 34004KT CAVOK

Alle Angaben unverbindlich und ohne Gewähr. Zeiten genähert.

Für den Verkehrslandeplatz Konstanz werden keine offiziellen Wetterinformationen ausgegeben. Daher werden zur Orientierung Daten des nahegelegenen Flughafens Friedrichshafen dargestellt.

Das Landeentgelt kann bei uns auch mit aerops bezahlt werden. Die App für's Handy ist kostenfrei erhältlich.